sensor_id;sensor_type;location;lat;lon;timestamp;temperature;humidity
16635;DHT22;8431;52.458;9.998;2024-03-06T00:00:11;4.00;99.90
16635;DHT22;8431;52.458;9.998;2024-03-06T00:02:39;3.90;99.90
16635;DHT22;8431;52.458;9.998;2024-03-06T00:05:06;3.90;99.90
16635;DHT22;8431;52.458;9.998;2024-03-06T00:07:35;3.90;99.90
16635;DHT22;8431;52.458;9.998;2024-03-06T00:10:02;4.00;99.90
16635;DHT22;8431;52.458;9.998;2024-03-06T00:12:30;3.90;99.90
16635;DHT22;8431;52.458;9.998;2024-03-06T00:14:57;3.90;99.90
16635;DHT22;8431;52.458;9.998;2024-03-06T00:17:24;3.90;99.90
16635;DHT22;8431;52.458;9.998;2024-03-06T00:19:50;4.00;99.90
16635;DHT22;8431;52.458;9.998;2024-03-06T00:22:17;4.00;99.90
16635;DHT22;8431;52.458;9.998;2024-03-06T00:24:45;3.90;99.90
16635;DHT22;8431;52.458;9.998;2024-03-06T00:27:13;3.90;99.90
16635;DHT22;8431;52.458;9.998;2024-03-06T00:29:40;3.90;99.90
16635;DHT22;8431;52.458;9.998;2024-03-06T00:32:07;3.90;99.90
16635;DHT22;8431;52.458;9.998;2024-03-06T00:34:34;4.00;99.90
16635;DHT22;8431;52.458;9.998;2024-03-06T00:37:00;3.90;99.90
16635;DHT22;8431;52.458;9.998;2024-03-06T00:39:27;3.80;99.90
16635;DHT22;8431;52.458;9.998;2024-03-06T00:41:55;3.80;99.90
16635;DHT22;8431;52.458;9.998;2024-03-06T00:44:22;3.80;99.90
16635;DHT22;8431;52.458;9.998;2024-03-06T00:46:49;3.70;99.90
16635;DHT22;8431;52.458;9.998;2024-03-06T00:49:16;3.70;99.90
16635;DHT22;8431;52.458;9.998;2024-03-06T00:51:42;3.70;99.90
16635;DHT22;8431;52.458;9.998;2024-03-06T00:54:10;3.70;99.90
16635;DHT22;8431;52.458;9.998;2024-03-06T00:56:37;3.70;99.90
16635;DHT22;8431;52.458;9.998;2024-03-06T00:59:05;3.70;99.90
16635;DHT22;8431;52.458;9.998;2024-03-06T01:01:31;3.60;99.90
16635;DHT22;8431;52.458;9.998;2024-03-06T01:03:59;3.60;99.90
16635;DHT22;8431;52.458;9.998;2024-03-06T01:06:26;3.60;99.90
16635;DHT22;8431;52.458;9.998;2024-03-06T01:08:52;3.70;99.90
16635;DHT22;8431;52.458;9.998;2024-03-06T01:11:20;3.60;99.90
16635;DHT22;8431;52.458;9.998;2024-03-06T01:13:47;3.60;99.90
16635;DHT22;8431;52.458;9.998;2024-03-06T01:16:15;3.60;99.90
16635;DHT22;8431;52.458;9.998;2024-03-06T01:18:42;3.70;99.90
16635;DHT22;8431;52.458;9.998;2024-03-06T01:21:08;3.60;99.90
16635;DHT22;8431;52.458;9.998;2024-03-06T01:23:35;3.60;99.90
16635;DHT22;8431;52.458;9.998;2024-03-06T01:26:02;3.60;99.90
16635;DHT22;8431;52.458;9.998;2024-03-06T01:28:29;3.60;99.90
16635;DHT22;8431;52.458;9.998;2024-03-06T01:30:56;3.50;99.90
16635;DHT22;8431;52.458;9.998;2024-03-06T01:33:25;3.50;99.90
16635;DHT22;8431;52.458;9.998;2024-03-06T01:35:53;3.50;99.90
16635;DHT22;8431;52.458;9.998;2024-03-06T01:38:19;3.50;99.90
16635;DHT22;8431;52.458;9.998;2024-03-06T01:40:47;3.50;99.90
16635;DHT22;8431;52.458;9.998;2024-03-06T01:43:20;3.50;99.90
16635;DHT22;8431;52.458;9.998;2024-03-06T01:45:48;3.50;99.90
16635;DHT22;8431;52.458;9.998;2024-03-06T01:48:15;3.50;99.90
16635;DHT22;8431;52.458;9.998;2024-03-06T01:50:44;3.40;99.90
16635;DHT22;8431;52.458;9.998;2024-03-06T01:53:12;3.40;99.90
16635;DHT22;8431;52.458;9.998;2024-03-06T01:55:39;3.50;99.90
16635;DHT22;8431;52.458;9.998;2024-03-06T01:58:08;3.50;99.90
16635;DHT22;8431;52.458;9.998;2024-03-06T02:00:35;3.50;99.90
16635;DHT22;8431;52.458;9.998;2024-03-06T02:03:02;3.50;99.90
16635;DHT22;8431;52.458;9.998;2024-03-06T02:05:29;3.50;99.90
16635;DHT22;8431;52.458;9.998;2024-03-06T02:07:59;3.50;99.90
16635;DHT22;8431;52.458;9.998;2024-03-06T02:10:29;3.50;99.90
16635;DHT22;8431;52.458;9.998;2024-03-06T02:12:55;3.50;99.90
16635;DHT22;8431;52.458;9.998;2024-03-06T02:15:23;3.50;99.90
16635;DHT22;8431;52.458;9.998;2024-03-06T02:17:51;3.40;99.90
16635;DHT22;8431;52.458;9.998;2024-03-06T02:20:23;3.40;99.90
16635;DHT22;8431;52.458;9.998;2024-03-06T02:22:50;3.50;99.90
16635;DHT22;8431;52.458;9.998;2024-03-06T02:25:17;3.50;99.90
16635;DHT22;8431;52.458;9.998;2024-03-06T02:27:44;3.50;99.90
16635;DHT22;8431;52.458;9.998;2024-03-06T02:30:13;3.50;99.90
16635;DHT22;8431;52.458;9.998;2024-03-06T02:32:40;3.60;99.90
16635;DHT22;8431;52.458;9.998;2024-03-06T02:35:09;3.50;99.90
16635;DHT22;8431;52.458;9.998;2024-03-06T02:37:37;3.50;99.90
16635;DHT22;8431;52.458;9.998;2024-03-06T02:40:05;3.40;99.90
16635;DHT22;8431;52.458;9.998;2024-03-06T02:42:35;3.40;99.90
16635;DHT22;8431;52.458;9.998;2024-03-06T02:45:03;3.40;99.90
16635;DHT22;8431;52.458;9.998;2024-03-06T02:47:30;3.40;99.90
16635;DHT22;8431;52.458;9.998;2024-03-06T02:49:57;3.40;99.90
16635;DHT22;8431;52.458;9.998;2024-03-06T02:52:23;3.40;99.90
16635;DHT22;8431;52.458;9.998;2024-03-06T02:54:51;3.50;99.90
16635;DHT22;8431;52.458;9.998;2024-03-06T02:57:18;3.50;99.90
16635;DHT22;8431;52.458;9.998;2024-03-06T02:59:45;3.40;99.90
16635;DHT22;8431;52.458;9.998;2024-03-06T03:02:12;3.40;99.90
16635;DHT22;8431;52.458;9.998;2024-03-06T03:04:39;3.40;99.90
16635;DHT22;8431;52.458;9.998;2024-03-06T03:07:05;3.50;99.90
16635;DHT22;8431;52.458;9.998;2024-03-06T03:09:32;3.40;99.90
16635;DHT22;8431;52.458;9.998;2024-03-06T03:12:03;3.40;99.90
16635;DHT22;8431;52.458;9.998;2024-03-06T03:14:29;3.40;99.90
16635;DHT22;8431;52.458;9.998;2024-03-06T03:16:57;3.40;99.90
16635;DHT22;8431;52.458;9.998;2024-03-06T03:19:23;3.40;99.90
16635;DHT22;8431;52.458;9.998;2024-03-06T03:21:50;3.40;99.90
16635;DHT22;8431;52.458;9.998;2024-03-06T03:24:17;3.40;99.90
16635;DHT22;8431;52.458;9.998;2024-03-06T03:26:46;3.40;99.90
16635;DHT22;8431;52.458;9.998;2024-03-06T03:29:14;3.50;99.90
16635;DHT22;8431;52.458;9.998;2024-03-06T03:31:40;3.50;99.90
16635;DHT22;8431;52.458;9.998;2024-03-06T03:34:08;3.50;99.90
16635;DHT22;8431;52.458;9.998;2024-03-06T03:36:40;3.50;99.90
16635;DHT22;8431;52.458;9.998;2024-03-06T03:39:07;3.50;99.90
16635;DHT22;8431;52.458;9.998;2024-03-06T03:41:43;3.50;99.90
16635;DHT22;8431;52.458;9.998;2024-03-06T03:44:11;3.50;99.90
16635;DHT22;8431;52.458;9.998;2024-03-06T03:46:39;3.40;99.90
16635;DHT22;8431;52.458;9.998;2024-03-06T03:49:06;3.40;99.90
16635;DHT22;8431;52.458;9.998;2024-03-06T03:51:34;3.50;99.90
16635;DHT22;8431;52.458;9.998;2024-03-06T03:54:01;3.40;99.90
16635;DHT22;8431;52.458;9.998;2024-03-06T03:56:28;3.40;99.90
16635;DHT22;8431;52.458;9.998;2024-03-06T03:58:56;3.40;99.90
16635;DHT22;8431;52.458;9.998;2024-03-06T04:01:22;3.50;99.90
16635;DHT22;8431;52.458;9.998;2024-03-06T04:03:51;3.50;99.90
16635;DHT22;8431;52.458;9.998;2024-03-06T04:06:18;3.50;99.90
16635;DHT22;8431;52.458;9.998;2024-03-06T04:08:45;3.50;99.90
16635;DHT22;8431;52.458;9.998;2024-03-06T04:11:12;3.50;99.90
16635;DHT22;8431;52.458;9.998;2024-03-06T04:13:38;3.50;99.90
16635;DHT22;8431;52.458;9.998;2024-03-06T04:16:06;3.50;99.90
16635;DHT22;8431;52.458;9.998;2024-03-06T04:18:33;3.40;99.90
16635;DHT22;8431;52.458;9.998;2024-03-06T04:21:03;3.40;99.90
16635;DHT22;8431;52.458;9.998;2024-03-06T04:23:30;3.40;99.90
16635;DHT22;8431;52.458;9.998;2024-03-06T04:25:58;3.40;99.90
16635;DHT22;8431;52.458;9.998;2024-03-06T04:28:25;3.40;99.90
16635;DHT22;8431;52.458;9.998;2024-03-06T04:30:52;3.40;99.90
16635;DHT22;8431;52.458;9.998;2024-03-06T04:33:19;3.30;99.90
16635;DHT22;8431;52.458;9.998;2024-03-06T04:35:45;3.30;99.90
16635;DHT22;8431;52.458;9.998;2024-03-06T04:38:14;3.30;99.90
16635;DHT22;8431;52.458;9.998;2024-03-06T04:40:41;3.30;99.90
16635;DHT22;8431;52.458;9.998;2024-03-06T04:43:08;3.30;99.90
16635;DHT22;8431;52.458;9.998;2024-03-06T04:45:35;3.30;99.90
16635;DHT22;8431;52.458;9.998;2024-03-06T04:48:02;3.30;99.90
16635;DHT22;8431;52.458;9.998;2024-03-06T04:50:29;3.30;99.90
16635;DHT22;8431;52.458;9.998;2024-03-06T04:52:56;3.30;99.90
16635;DHT22;8431;52.458;9.998;2024-03-06T04:55:27;3.30;99.90
16635;DHT22;8431;52.458;9.998;2024-03-06T04:57:54;3.30;99.90
16635;DHT22;8431;52.458;9.998;2024-03-06T05:00:20;3.30;99.90
16635;DHT22;8431;52.458;9.998;2024-03-06T05:02:47;3.30;99.90
16635;DHT22;8431;52.458;9.998;2024-03-06T05:05:15;3.30;99.90
16635;DHT22;8431;52.458;9.998;2024-03-06T05:07:42;3.30;99.90
16635;DHT22;8431;52.458;9.998;2024-03-06T05:10:09;3.30;99.90
16635;DHT22;8431;52.458;9.998;2024-03-06T05:12:37;3.40;99.90
16635;DHT22;8431;52.458;9.998;2024-03-06T05:15:05;3.40;99.90
16635;DHT22;8431;52.458;9.998;2024-03-06T05:17:32;3.40;99.90
16635;DHT22;8431;52.458;9.998;2024-03-06T05:19:59;3.40;99.90
16635;DHT22;8431;52.458;9.998;2024-03-06T05:22:26;3.40;99.90
16635;DHT22;8431;52.458;9.998;2024-03-06T05:24:53;3.40;99.90
16635;DHT22;8431;52.458;9.998;2024-03-06T05:27:20;3.30;99.90
16635;DHT22;8431;52.458;9.998;2024-03-06T05:29:48;3.30;99.90
16635;DHT22;8431;52.458;9.998;2024-03-06T05:32:15;3.30;99.90
16635;DHT22;8431;52.458;9.998;2024-03-06T05:34:42;3.30;99.90
16635;DHT22;8431;52.458;9.998;2024-03-06T05:37:10;3.30;99.90
16635;DHT22;8431;52.458;9.998;2024-03-06T05:39:37;3.30;99.90
16635;DHT22;8431;52.458;9.998;2024-03-06T05:42:04;3.30;99.90
16635;DHT22;8431;52.458;9.998;2024-03-06T05:44:31;3.30;99.90
16635;DHT22;8431;52.458;9.998;2024-03-06T05:47:00;3.20;99.90
16635;DHT22;8431;52.458;9.998;2024-03-06T05:49:28;3.30;99.90
16635;DHT22;8431;52.458;9.998;2024-03-06T05:51:55;3.30;99.90
16635;DHT22;8431;52.458;9.998;2024-03-06T05:54:22;3.30;99.90
16635;DHT22;8431;52.458;9.998;2024-03-06T05:56:50;3.30;99.90
16635;DHT22;8431;52.458;9.998;2024-03-06T05:59:19;3.40;99.90
16635;DHT22;8431;52.458;9.998;2024-03-06T06:01:46;3.30;99.90
16635;DHT22;8431;52.458;9.998;2024-03-06T06:04:14;3.30;99.90
16635;DHT22;8431;52.458;9.998;2024-03-06T06:06:46;3.30;99.90
16635;DHT22;8431;52.458;9.998;2024-03-06T06:09:13;3.40;99.90
16635;DHT22;8431;52.458;9.998;2024-03-06T06:11:41;3.40;99.90
16635;DHT22;8431;52.458;9.998;2024-03-06T06:14:08;3.40;99.90
16635;DHT22;8431;52.458;9.998;2024-03-06T06:16:38;3.40;99.90
16635;DHT22;8431;52.458;9.998;2024-03-06T06:19:08;3.40;99.90
16635;DHT22;8431;52.458;9.998;2024-03-06T06:21:36;3.30;99.90
16635;DHT22;8431;52.458;9.998;2024-03-06T06:24:04;3.30;99.90
16635;DHT22;8431;52.458;9.998;2024-03-06T06:26:37;3.30;99.90
16635;DHT22;8431;52.458;9.998;2024-03-06T06:29:04;3.20;99.90
16635;DHT22;8431;52.458;9.998;2024-03-06T06:31:37;3.30;99.90
16635;DHT22;8431;52.458;9.998;2024-03-06T06:34:10;3.40;99.90
16635;DHT22;8431;52.458;9.998;2024-03-06T06:36:45;3.40;99.90
16635;DHT22;8431;52.458;9.998;2024-03-06T06:39:17;3.40;99.90
16635;DHT22;8431;52.458;9.998;2024-03-06T06:41:44;3.40;99.90
16635;DHT22;8431;52.458;9.998;2024-03-06T06:44:13;3.40;99.90
16635;DHT22;8431;52.458;9.998;2024-03-06T06:46:40;3.40;99.90
16635;DHT22;8431;52.458;9.998;2024-03-06T06:49:08;3.50;99.90
16635;DHT22;8431;52.458;9.998;2024-03-06T06:51:35;3.60;99.90
16635;DHT22;8431;52.458;9.998;2024-03-06T06:54:04;3.50;99.90
16635;DHT22;8431;52.458;9.998;2024-03-06T06:56:31;3.60;99.90
16635;DHT22;8431;52.458;9.998;2024-03-06T06:58:58;3.60;99.90
16635;DHT22;8431;52.458;9.998;2024-03-06T07:01:25;3.60;99.90
16635;DHT22;8431;52.458;9.998;2024-03-06T07:03:53;3.50;99.90
16635;DHT22;8431;52.458;9.998;2024-03-06T07:06:20;3.70;99.90
16635;DHT22;8431;52.458;9.998;2024-03-06T07:08:48;3.70;99.90
16635;DHT22;8431;52.458;9.998;2024-03-06T07:11:17;3.70;99.90
16635;DHT22;8431;52.458;9.998;2024-03-06T07:13:44;3.70;99.90
16635;DHT22;8431;52.458;9.998;2024-03-06T07:16:11;3.80;99.90
16635;DHT22;8431;52.458;9.998;2024-03-06T07:18:38;3.90;99.90
16635;DHT22;8431;52.458;9.998;2024-03-06T07:21:05;4.00;99.90
16635;DHT22;8431;52.458;9.998;2024-03-06T07:23:31;4.00;99.90
16635;DHT22;8431;52.458;9.998;2024-03-06T07:25:58;4.00;99.90
16635;DHT22;8431;52.458;9.998;2024-03-06T07:28:27;4.00;99.90
16635;DHT22;8431;52.458;9.998;2024-03-06T07:30:54;4.00;99.90
16635;DHT22;8431;52.458;9.998;2024-03-06T07:33:20;4.00;99.90
16635;DHT22;8431;52.458;9.998;2024-03-06T07:35:47;4.00;99.90
16635;DHT22;8431;52.458;9.998;2024-03-06T07:38:14;3.90;99.90
16635;DHT22;8431;52.458;9.998;2024-03-06T07:40:41;4.00;99.90
16635;DHT22;8431;52.458;9.998;2024-03-06T07:43:08;4.00;99.90
16635;DHT22;8431;52.458;9.998;2024-03-06T07:45:38;4.10;99.90
16635;DHT22;8431;52.458;9.998;2024-03-06T07:48:05;4.00;99.90
16635;DHT22;8431;52.458;9.998;2024-03-06T07:50:33;3.90;99.90
16635;DHT22;8431;52.458;9.998;2024-03-06T07:53:00;4.00;99.90
16635;DHT22;8431;52.458;9.998;2024-03-06T07:55:27;4.10;99.90
16635;DHT22;8431;52.458;9.998;2024-03-06T07:57:54;4.10;99.90
16635;DHT22;8431;52.458;9.998;2024-03-06T08:00:21;4.10;99.90
16635;DHT22;8431;52.458;9.998;2024-03-06T08:02:49;4.20;99.90
16635;DHT22;8431;52.458;9.998;2024-03-06T08:05:16;4.10;99.90
16635;DHT22;8431;52.458;9.998;2024-03-06T08:07:43;4.30;99.90
16635;DHT22;8431;52.458;9.998;2024-03-06T08:10:12;4.50;99.90
16635;DHT22;8431;52.458;9.998;2024-03-06T08:12:39;4.50;99.90
16635;DHT22;8431;52.458;9.998;2024-03-06T08:15:08;4.60;99.90
16635;DHT22;8431;52.458;9.998;2024-03-06T08:17:35;4.60;99.90
16635;DHT22;8431;52.458;9.998;2024-03-06T08:20:04;4.60;99.90
16635;DHT22;8431;52.458;9.998;2024-03-06T08:22:33;4.50;99.90
16635;DHT22;8431;52.458;9.998;2024-03-06T08:25:05;4.60;99.90
16635;DHT22;8431;52.458;9.998;2024-03-06T08:27:32;4.70;99.90
16635;DHT22;8431;52.458;9.998;2024-03-06T08:29:59;4.90;99.90
16635;DHT22;8431;52.458;9.998;2024-03-06T08:32:26;5.10;99.90
16635;DHT22;8431;52.458;9.998;2024-03-06T08:34:54;5.20;99.90
16635;DHT22;8431;52.458;9.998;2024-03-06T08:37:22;5.20;99.90
16635;DHT22;8431;52.458;9.998;2024-03-06T08:39:49;5.30;99.90
16635;DHT22;8431;52.458;9.998;2024-03-06T08:42:16;5.30;99.90
16635;DHT22;8431;52.458;9.998;2024-03-06T08:44:44;5.40;99.90
16635;DHT22;8431;52.458;9.998;2024-03-06T08:47:12;5.50;99.90
16635;DHT22;8431;52.458;9.998;2024-03-06T08:49:39;5.60;99.90
16635;DHT22;8431;52.458;9.998;2024-03-06T08:52:05;5.80;99.90
16635;DHT22;8431;52.458;9.998;2024-03-06T08:54:34;5.90;99.90
16635;DHT22;8431;52.458;9.998;2024-03-06T08:57:00;6.00;99.90
16635;DHT22;8431;52.458;9.998;2024-03-06T08:59:28;6.10;99.90
16635;DHT22;8431;52.458;9.998;2024-03-06T09:01:55;6.10;99.90
16635;DHT22;8431;52.458;9.998;2024-03-06T09:04:23;6.20;99.90
16635;DHT22;8431;52.458;9.998;2024-03-06T09:06:50;6.20;99.90
16635;DHT22;8431;52.458;9.998;2024-03-06T09:09:16;6.20;99.90
16635;DHT22;8431;52.458;9.998;2024-03-06T09:11:45;6.20;99.90
16635;DHT22;8431;52.458;9.998;2024-03-06T09:14:11;6.00;99.90
16635;DHT22;8431;52.458;9.998;2024-03-06T09:16:38;6.10;99.90
16635;DHT22;8431;52.458;9.998;2024-03-06T09:19:05;6.40;99.90
16635;DHT22;8431;52.458;9.998;2024-03-06T09:21:32;6.50;99.90
16635;DHT22;8431;52.458;9.998;2024-03-06T09:23:59;6.70;99.90
16635;DHT22;8431;52.458;9.998;2024-03-06T09:26:25;6.90;99.90
16635;DHT22;8431;52.458;9.998;2024-03-06T09:28:54;7.10;99.90
16635;DHT22;8431;52.458;9.998;2024-03-06T09:31:20;7.20;99.90
16635;DHT22;8431;52.458;9.998;2024-03-06T09:33:47;7.20;99.90
16635;DHT22;8431;52.458;9.998;2024-03-06T09:36:14;7.40;99.90
16635;DHT22;8431;52.458;9.998;2024-03-06T09:38:41;7.50;99.80
16635;DHT22;8431;52.458;9.998;2024-03-06T09:41:08;7.20;98.70
16635;DHT22;8431;52.458;9.998;2024-03-06T09:43:40;7.20;99.30
16635;DHT22;8431;52.458;9.998;2024-03-06T09:46:11;7.00;99.90
16635;DHT22;8431;52.458;9.998;2024-03-06T09:48:45;7.30;99.90
16635;DHT22;8431;52.458;9.998;2024-03-06T09:51:15;7.50;99.90
16635;DHT22;8431;52.458;9.998;2024-03-06T09:53:45;7.40;98.20
16635;DHT22;8431;52.458;9.998;2024-03-06T09:56:15;7.60;99.50
16635;DHT22;8431;52.458;9.998;2024-03-06T09:58:42;7.70;99.70
16635;DHT22;8431;52.458;9.998;2024-03-06T10:01:09;7.70;99.20
16635;DHT22;8431;52.458;9.998;2024-03-06T10:03:42;8.10;99.40
16635;DHT22;8431;52.458;9.998;2024-03-06T10:06:10;8.30;98.00
16635;DHT22;8431;52.458;9.998;2024-03-06T10:08:42;8.00;98.00
16635;DHT22;8431;52.458;9.998;2024-03-06T10:11:10;8.10;97.50
16635;DHT22;8431;52.458;9.998;2024-03-06T10:13:40;8.20;97.50
16635;DHT22;8431;52.458;9.998;2024-03-06T10:16:07;7.90;97.70
16635;DHT22;8431;52.458;9.998;2024-03-06T10:18:45;7.30;99.50
16635;DHT22;8431;52.458;9.998;2024-03-06T10:21:14;7.40;99.90
16635;DHT22;8431;52.458;9.998;2024-03-06T10:23:43;7.40;99.20
16635;DHT22;8431;52.458;9.998;2024-03-06T10:26:09;7.20;98.80
16635;DHT22;8431;52.458;9.998;2024-03-06T10:28:38;7.00;99.90
16635;DHT22;8431;52.458;9.998;2024-03-06T10:31:13;7.10;99.90
16635;DHT22;8431;52.458;9.998;2024-03-06T10:33:42;7.20;98.30
16635;DHT22;8431;52.458;9.998;2024-03-06T10:36:11;7.00;99.10
16635;DHT22;8431;52.458;9.998;2024-03-06T10:38:41;6.60;99.90
16635;DHT22;8431;52.458;9.998;2024-03-06T10:41:10;6.60;99.90
16635;DHT22;8431;52.458;9.998;2024-03-06T10:43:42;6.90;99.90
16635;DHT22;8431;52.458;9.998;2024-03-06T10:46:13;7.10;99.90
16635;DHT22;8431;52.458;9.998;2024-03-06T10:48:41;7.20;99.90
16635;DHT22;8431;52.458;9.998;2024-03-06T10:51:13;7.60;99.90
16635;DHT22;8431;52.458;9.998;2024-03-06T10:53:44;8.00;99.50
16635;DHT22;8431;52.458;9.998;2024-03-06T10:56:12;8.30;97.80
16635;DHT22;8431;52.458;9.998;2024-03-06T10:58:40;8.10;97.90
16635;DHT22;8431;52.458;9.998;2024-03-06T11:01:08;8.10;97.30
16635;DHT22;8431;52.458;9.998;2024-03-06T11:03:38;7.90;98.30
16635;DHT22;8431;52.458;9.998;2024-03-06T11:06:06;8.00;99.30
16635;DHT22;8431;52.458;9.998;2024-03-06T11:08:34;7.80;97.50
16635;DHT22;8431;52.458;9.998;2024-03-06T11:11:22;7.40;99.50
16635;DHT22;8431;52.458;9.998;2024-03-06T11:13:49;7.30;99.40
16635;DHT22;8431;52.458;9.998;2024-03-06T11:16:16;7.20;99.40
16635;DHT22;8431;52.458;9.998;2024-03-06T11:18:43;7.10;99.80
16635;DHT22;8431;52.458;9.998;2024-03-06T11:21:30;7.20;98.70
16635;DHT22;8431;52.458;9.998;2024-03-06T11:24:17;7.50;99.90
16635;DHT22;8431;52.458;9.998;2024-03-06T11:26:46;7.60;98.90
16635;DHT22;8431;52.458;9.998;2024-03-06T11:29:16;7.30;99.80
16635;DHT22;8431;52.458;9.998;2024-03-06T11:32:05;7.30;99.80
16635;DHT22;8431;52.458;9.998;2024-03-06T11:34:33;7.30;99.50
16635;DHT22;8431;52.458;9.998;2024-03-06T11:37:04;7.20;99.90
16635;DHT22;8431;52.458;9.998;2024-03-06T11:39:35;7.20;99.50
16635;DHT22;8431;52.458;9.998;2024-03-06T11:42:03;7.00;99.70
16635;DHT22;8431;52.458;9.998;2024-03-06T11:44:31;7.20;99.90
16635;DHT22;8431;52.458;9.998;2024-03-06T11:47:00;7.10;99.90
16635;DHT22;8431;52.458;9.998;2024-03-06T11:49:28;7.20;99.70
16635;DHT22;8431;52.458;9.998;2024-03-06T11:51:58;7.30;99.30
16635;DHT22;8431;52.458;9.998;2024-03-06T11:54:25;7.20;99.00
16635;DHT22;8431;52.458;9.998;2024-03-06T11:56:55;7.30;99.80
16635;DHT22;8431;52.458;9.998;2024-03-06T11:59:22;7.30;99.60
16635;DHT22;8431;52.458;9.998;2024-03-06T12:01:50;7.40;99.70
16635;DHT22;8431;52.458;9.998;2024-03-06T12:04:18;7.40;99.00
16635;DHT22;8431;52.458;9.998;2024-03-06T12:06:45;7.30;97.80
16635;DHT22;8431;52.458;9.998;2024-03-06T12:09:12;7.40;98.80
16635;DHT22;8431;52.458;9.998;2024-03-06T12:11:40;7.70;99.10
16635;DHT22;8431;52.458;9.998;2024-03-06T12:14:13;8.00;99.20
16635;DHT22;8431;52.458;9.998;2024-03-06T12:16:40;8.00;98.50
16635;DHT22;8431;52.458;9.998;2024-03-06T12:19:07;8.20;98.20
16635;DHT22;8431;52.458;9.998;2024-03-06T12:21:35;8.20;97.50
16635;DHT22;8431;52.458;9.998;2024-03-06T12:24:04;8.20;96.90
16635;DHT22;8431;52.458;9.998;2024-03-06T12:26:31;8.00;94.80
16635;DHT22;8431;52.458;9.998;2024-03-06T12:29:05;7.90;97.10
16635;DHT22;8431;52.458;9.998;2024-03-06T12:31:35;8.00;97.00
16635;DHT22;8431;52.458;9.998;2024-03-06T12:34:02;7.90;97.30
16635;DHT22;8431;52.458;9.998;2024-03-06T12:36:29;7.90;95.90
16635;DHT22;8431;52.458;9.998;2024-03-06T12:38:59;8.00;96.70
16635;DHT22;8431;52.458;9.998;2024-03-06T12:41:26;7.90;95.20
16635;DHT22;8431;52.458;9.998;2024-03-06T12:43:53;7.90;96.30
16635;DHT22;8431;52.458;9.998;2024-03-06T12:46:21;8.00;96.20
16635;DHT22;8431;52.458;9.998;2024-03-06T12:48:50;8.00;96.60
16635;DHT22;8431;52.458;9.998;2024-03-06T12:51:17;8.10;96.30
16635;DHT22;8431;52.458;9.998;2024-03-06T12:53:44;8.10;96.10
16635;DHT22;8431;52.458;9.998;2024-03-06T12:56:11;8.10;96.10
16635;DHT22;8431;52.458;9.998;2024-03-06T12:58:38;8.20;96.40
16635;DHT22;8431;52.458;9.998;2024-03-06T13:01:05;8.10;95.20
16635;DHT22;8431;52.458;9.998;2024-03-06T13:03:32;8.10;95.20
16635;DHT22;8431;52.458;9.998;2024-03-06T13:06:00;8.20;96.60
16635;DHT22;8431;52.458;9.998;2024-03-06T13:08:27;8.30;96.30
16635;DHT22;8431;52.458;9.998;2024-03-06T13:10:54;8.20;96.00
16635;DHT22;8431;52.458;9.998;2024-03-06T13:13:21;8.30;96.50
16635;DHT22;8431;52.458;9.998;2024-03-06T13:15:50;8.30;95.80
16635;DHT22;8431;52.458;9.998;2024-03-06T13:18:17;8.40;95.90
16635;DHT22;8431;52.458;9.998;2024-03-06T13:20:44;8.40;96.40
16635;DHT22;8431;52.458;9.998;2024-03-06T13:23:13;8.50;96.80
16635;DHT22;8431;52.458;9.998;2024-03-06T13:25:39;8.40;95.50
16635;DHT22;8431;52.458;9.998;2024-03-06T13:28:07;8.40;96.10
16635;DHT22;8431;52.458;9.998;2024-03-06T13:30:34;8.30;96.10
16635;DHT22;8431;52.458;9.998;2024-03-06T13:33:01;8.50;95.60
16635;DHT22;8431;52.458;9.998;2024-03-06T13:35:28;8.40;96.60
16635;DHT22;8431;52.458;9.998;2024-03-06T13:37:55;8.30;96.20
16635;DHT22;8431;52.458;9.998;2024-03-06T13:40:23;8.30;95.90
16635;DHT22;8431;52.458;9.998;2024-03-06T13:42:51;8.30;97.60
16635;DHT22;8431;52.458;9.998;2024-03-06T13:45:18;8.30;96.00
16635;DHT22;8431;52.458;9.998;2024-03-06T13:47:45;8.40;96.10
16635;DHT22;8431;52.458;9.998;2024-03-06T13:50:14;8.30;95.20
16635;DHT22;8431;52.458;9.998;2024-03-06T13:52:41;8.40;95.60
16635;DHT22;8431;52.458;9.998;2024-03-06T13:55:09;8.40;95.30
16635;DHT22;8431;52.458;9.998;2024-03-06T13:57:38;8.50;96.40
16635;DHT22;8431;52.458;9.998;2024-03-06T14:00:08;8.40;96.10
16635;DHT22;8431;52.458;9.998;2024-03-06T14:02:43;8.40;96.00
16635;DHT22;8431;52.458;9.998;2024-03-06T14:05:11;8.30;96.20
16635;DHT22;8431;52.458;9.998;2024-03-06T14:07:38;8.30;96.10
16635;DHT22;8431;52.458;9.998;2024-03-06T14:10:07;8.20;96.70
16635;DHT22;8431;52.458;9.998;2024-03-06T14:12:36;8.20;96.30
16635;DHT22;8431;52.458;9.998;2024-03-06T14:15:05;8.30;95.80
16635;DHT22;8431;52.458;9.998;2024-03-06T14:17:37;8.20;96.20
16635;DHT22;8431;52.458;9.998;2024-03-06T14:20:04;8.30;96.10
16635;DHT22;8431;52.458;9.998;2024-03-06T14:22:31;8.30;96.50
16635;DHT22;8431;52.458;9.998;2024-03-06T14:24:58;8.40;95.30
16635;DHT22;8431;52.458;9.998;2024-03-06T14:27:25;8.40;95.70
16635;DHT22;8431;52.458;9.998;2024-03-06T14:29:53;8.30;95.00
16635;DHT22;8431;52.458;9.998;2024-03-06T14:32:20;8.40;95.80
16635;DHT22;8431;52.458;9.998;2024-03-06T14:34:47;8.40;95.30
16635;DHT22;8431;52.458;9.998;2024-03-06T14:37:15;8.30;94.70
16635;DHT22;8431;52.458;9.998;2024-03-06T14:39:42;8.30;94.70
16635;DHT22;8431;52.458;9.998;2024-03-06T14:42:08;8.30;95.00
16635;DHT22;8431;52.458;9.998;2024-03-06T14:44:35;8.30;95.00
16635;DHT22;8431;52.458;9.998;2024-03-06T14:47:04;8.30;95.30
16635;DHT22;8431;52.458;9.998;2024-03-06T14:49:31;8.20;94.50
16635;DHT22;8431;52.458;9.998;2024-03-06T14:51:58;8.30;95.30
16635;DHT22;8431;52.458;9.998;2024-03-06T14:54:31;8.30;94.60
16635;DHT22;8431;52.458;9.998;2024-03-06T14:56:58;8.40;94.60
16635;DHT22;8431;52.458;9.998;2024-03-06T14:59:27;8.40;94.40
16635;DHT22;8431;52.458;9.998;2024-03-06T15:01:54;8.40;94.70
16635;DHT22;8431;52.458;9.998;2024-03-06T15:04:25;8.30;94.30
16635;DHT22;8431;52.458;9.998;2024-03-06T15:06:52;8.30;93.40
16635;DHT22;8431;52.458;9.998;2024-03-06T15:09:22;8.40;96.00
16635;DHT22;8431;52.458;9.998;2024-03-06T15:11:51;8.40;93.50
16635;DHT22;8431;52.458;9.998;2024-03-06T15:14:19;8.40;94.80
16635;DHT22;8431;52.458;9.998;2024-03-06T15:16:46;8.30;94.10
16635;DHT22;8431;52.458;9.998;2024-03-06T15:19:13;8.40;95.80
16635;DHT22;8431;52.458;9.998;2024-03-06T15:21:50;8.30;95.40
16635;DHT22;8431;52.458;9.998;2024-03-06T15:24:17;8.30;96.00
16635;DHT22;8431;52.458;9.998;2024-03-06T15:26:44;8.30;95.60
16635;DHT22;8431;52.458;9.998;2024-03-06T15:29:11;8.30;96.40
16635;DHT22;8431;52.458;9.998;2024-03-06T15:31:38;8.40;95.40
16635;DHT22;8431;52.458;9.998;2024-03-06T15:34:05;8.40;94.90
16635;DHT22;8431;52.458;9.998;2024-03-06T15:36:32;8.40;95.10
16635;DHT22;8431;52.458;9.998;2024-03-06T15:39:00;8.50;95.10
16635;DHT22;8431;52.458;9.998;2024-03-06T15:41:28;8.50;94.60
16635;DHT22;8431;52.458;9.998;2024-03-06T15:43:54;8.60;94.40
16635;DHT22;8431;52.458;9.998;2024-03-06T15:46:21;8.70;95.00
16635;DHT22;8431;52.458;9.998;2024-03-06T15:48:48;8.70;96.20
16635;DHT22;8431;52.458;9.998;2024-03-06T15:51:15;8.50;96.00
16635;DHT22;8431;52.458;9.998;2024-03-06T15:53:42;8.50;96.40
16635;DHT22;8431;52.458;9.998;2024-03-06T15:56:10;8.40;95.80
16635;DHT22;8431;52.458;9.998;2024-03-06T15:58:39;8.40;95.90
16635;DHT22;8431;52.458;9.998;2024-03-06T16:01:06;8.30;96.20
16635;DHT22;8431;52.458;9.998;2024-03-06T16:03:33;8.10;96.80
16635;DHT22;8431;52.458;9.998;2024-03-06T16:06:00;8.00;97.20